Time;durP1;ratioP1;P1;durP2;ratioP2;P2;SDS_P1;SDS_P2;PMS_P1;PMS_P2;Temp;Humidity;BMP_temperature;BMP_pressure;BME280_temperature;BME280_humidity;BME280_pressure;Samples;Min_cycle;Max_cycle;Signal;HPM_P1;HPM_P2
2023/09/18 00:00:21;;;;;;;14.98;13.60;;;17.00;93.70;;;;;;5035015;28;20025;-48
2023/09/18 00:02:50;;;;;;;17.15;15.55;;;17.00;93.70;;;;;;5072583;28;20044;-47
2023/09/18 00:05:22;;;;;;;16.10;14.68;;;17.00;93.80;;;;;;5065701;28;20032;-48
2023/09/18 00:07:49;;;;;;;15.82;14.43;;;17.00;93.80;;;;;;5069127;28;20036;-49
2023/09/18 00:10:16;;;;;;;17.50;15.80;;;17.10;93.90;;;;;;5064136;28;20028;-49
2023/09/18 00:12:42;;;;;;;16.52;14.98;;;17.00;93.90;;;;;;5054703;28;20120;-46
2023/09/18 00:15:09;;;;;;;17.02;15.43;;;17.00;93.90;;;;;;5068380;28;20100;-45
2023/09/18 00:17:36;;;;;;;18.48;16.58;;;17.10;93.90;;;;;;5032420;28;20029;-48
2023/09/18 00:20:06;;;;;;;18.25;16.60;;;17.00;94.00;;;;;;5033993;28;20041;-46
2023/09/18 00:22:33;;;;;;;20.85;18.83;;;17.10;94.00;;;;;;5014698;28;20162;-48
2023/09/18 00:25:03;;;;;;;18.88;17.15;;;17.00;94.00;;;;;;5034653;28;20060;-49
2023/09/18 00:27:30;;;;;;;18.67;16.95;;;17.00;94.00;;;;;;5059851;28;20110;-48
2023/09/18 00:29:57;;;;;;;19.08;17.27;;;17.00;94.10;;;;;;5043147;28;20095;-46
2023/09/18 00:32:24;;;;;;;19.40;17.63;;;17.00;94.10;;;;;;5068241;28;20028;-50
2023/09/18 00:34:50;;;;;;;18.25;16.55;;;17.00;94.20;;;;;;5032326;28;20041;-50
2023/09/18 00:37:20;;;;;;;18.13;16.52;;;17.00;94.20;;;;;;5032381;28;20534;-47
2023/09/18 00:39:49;;;;;;;19.15;17.40;;;17.10;94.10;;;;;;5061475;28;20437;-47
2023/09/18 00:42:17;;;;;;;21.27;19.38;;;17.10;94.10;;;;;;5034694;28;20037;-45
2023/09/18 00:44:45;;;;;;;20.65;18.63;;;17.00;94.10;;;;;;5032064;28;20104;-46
2023/09/18 00:47:14;;;;;;;18.90;16.88;;;17.00;94.20;;;;;;5046455;28;20139;-45
2023/09/18 00:49:43;;;;;;;16.77;15.18;;;17.00;94.20;;;;;;5076015;28;20028;-47
2023/09/18 00:52:11;;;;;;;17.40;15.70;;;17.00;94.20;;;;;;5068331;28;20517;-49
2023/09/18 00:54:40;;;;;;;17.80;16.20;;;17.00;94.20;;;;;;5042676;28;20443;-46
2023/09/18 00:57:11;;;;;;;16.80;15.20;;;17.00;94.20;;;;;;5064261;28;20028;-45
2023/09/18 00:59:44;;;;;;;19.83;18.02;;;17.00;94.20;;;;;;5039570;28;20132;-47
2023/09/18 01:02:10;;;;;;;18.63;16.90;;;16.90;94.20;;;;;;5066385;28;20040;-45
2023/09/18 01:04:37;;;;;;;19.17;17.35;;;16.90;94.20;;;;;;5064465;28;20435;-49
2023/09/18 01:07:04;;;;;;;18.88;16.98;;;16.90;94.20;;;;;;5058002;28;20043;-46
2023/09/18 01:09:34;;;;;;;19.20;17.42;;;16.90;94.20;;;;;;5067682;28;20029;-45
2023/09/18 01:12:12;;;;;;;19.25;17.35;;;16.90;94.30;;;;;;5040967;28;20040;-48
2023/09/18 01:14:55;;;;;;;20.02;18.15;;;16.90;94.30;;;;;;5068356;28;20354;-47
2023/09/18 01:17:23;;;;;;;19.38;17.60;;;16.90;94.30;;;;;;5046887;28;20025;-45
2023/09/18 01:19:50;;;;;;;21.83;19.73;;;16.90;94.30;;;;;;5034277;28;20040;-45
2023/09/18 01:22:18;;;;;;;19.63;17.83;;;16.90;94.30;;;;;;5034826;28;20436;-44
2023/09/18 01:24:48;;;;;;;21.77;19.75;;;16.90;94.30;;;;;;5037502;28;20040;-44
2023/09/18 01:27:17;;;;;;;20.42;18.63;;;16.90;94.40;;;;;;5033682;28;20033;-45
2023/09/18 01:29:47;;;;;;;21.63;19.42;;;16.90;94.40;;;;;;5042933;28;20072;-47
2023/09/18 01:32:15;;;;;;;21.95;19.83;;;17.00;94.50;;;;;;5068160;28;20020;-46
2023/09/18 01:34:51;;;;;;;24.60;22.23;;;17.00;94.50;;;;;;5057174;28;20433;-46
2023/09/18 01:37:22;;;;;;;24.02;21.75;;;17.00;94.50;;;;;;5054286;28;20067;-44
2023/09/18 01:39:52;;;;;;;24.83;22.42;;;17.00;94.70;;;;;;5063407;28;20031;-50
2023/09/18 01:42:19;;;;;;;27.50;24.95;;;17.10;95.00;;;;;;5055608;28;20404;-45
2023/09/18 01:44:48;;;;;;;26.42;24.02;;;17.20;95.20;;;;;;5068206;28;20037;-46
2023/09/18 01:47:21;;;;;;;30.02;27.00;;;17.30;95.10;;;;;;5067430;28;20036;-44
2023/09/18 01:49:51;;;;;;;26.45;23.42;;;17.40;95.30;;;;;;5056871;28;20028;-45
2023/09/18 01:52:19;;;;;;;26.55;24.05;;;17.40;95.40;;;;;;5073278;28;20107;-45
2023/09/18 01:54:46;;;;;;;24.60;22.10;;;17.40;95.30;;;;;;5060200;28;20041;-48
2023/09/18 01:57:13;;;;;;;27.73;25.02;;;17.40;95.30;;;;;;5050586;28;20036;-45
2023/09/18 01:59:41;;;;;;;26.48;24.05;;;17.50;95.40;;;;;;5052286;28;20474;-44
2023/09/18 02:02:09;;;;;;;26.83;24.38;;;17.50;95.40;;;;;;5068454;28;20032;-45
2023/09/18 02:04:36;;;;;;;28.25;25.67;;;17.50;95.30;;;;;;5074784;28;20044;-44
2023/09/18 02:07:05;;;;;;;27.90;25.27;;;17.50;95.40;;;;;;5045539;28;20026;-45
2023/09/18 02:09:31;;;;;;;26.55;24.08;;;17.50;95.40;;;;;;5034567;28;20030;-49
2023/09/18 02:11:58;;;;;;;27.58;24.73;;;17.50;95.60;;;;;;5048475;28;20048;-46
2023/09/18 02:14:31;;;;;;;29.27;26.52;;;17.50;95.50;;;;;;5051880;28;20029;-47
2023/09/18 02:16:57;;;;;;;28.55;25.75;;;17.60;95.50;;;;;;5067885;28;20044;-45
2023/09/18 02:19:25;;;;;;;27.50;24.70;;;17.50;95.50;;;;;;5056484;28;20043;-47
2023/09/18 02:21:55;;;;;;;24.77;22.58;;;17.50;95.50;;;;;;5074286;28;20025;-44
2023/09/18 02:24:23;;;;;;;26.95;24.23;;;17.50;95.60;;;;;;5050345;28;20188;-47
2023/09/18 02:26:50;;;;;;;24.33;22.05;;;17.50;95.60;;;;;;5037265;28;20098;-45
2023/09/18 02:29:17;;;;;;;26.42;24.02;;;17.50;95.60;;;;;;5074424;28;20526;-46
2023/09/18 02:31:46;;;;;;;24.90;22.58;;;17.50;95.70;;;;;;5044673;28;20112;-46
2023/09/18 02:34:16;;;;;;;26.13;23.52;;;17.50;95.60;;;;;;5071440;28;20064;-46
2023/09/18 02:36:45;;;;;;;25.67;23.35;;;17.50;95.70;;;;;;5067265;28;20037;-49
2023/09/18 02:39:12;;;;;;;26.90;24.50;;;17.50;95.60;;;;;;5053936;28;20052;-46
2023/09/18 02:41:41;;;;;;;25.52;23.05;;;17.50;95.60;;;;;;5039580;28;20428;-47
2023/09/18 02:44:09;;;;;;;24.55;22.25;;;17.40;95.60;;;;;;5015555;28;20037;-46
2023/09/18 02:46:38;;;;;;;23.65;21.55;;;17.40;95.60;;;;;;5057514;28;20448;-50
2023/09/18 02:49:07;;;;;;;23.30;21.05;;;17.40;95.60;;;;;;5059886;28;20082;-47
2023/09/18 02:51:34;;;;;;;23.95;21.85;;;17.40;95.60;;;;;;5065610;28;20043;-46
2023/09/18 02:54:01;;;;;;;23.08;21.00;;;17.40;95.60;;;;;;5055743;28;20044;-46
2023/09/18 02:56:28;;;;;;;23.20;21.20;;;17.40;95.60;;;;;;5064031;28;20374;-48
2023/09/18 02:58:54;;;;;;;24.90;21.50;;;17.30;95.50;;;;;;5073167;28;20036;-45
2023/09/18 03:01:24;;;;;;;22.98;20.77;;;17.30;95.50;;;;;;5070106;28;20035;-46
2023/09/18 03:03:54;;;;;;;23.42;21.33;;;17.30;95.50;;;;;;5043680;28;20351;-46
2023/09/18 03:06:21;;;;;;;24.23;22.08;;;17.20;95.50;;;;;;5043929;28;20036;-51
2023/09/18 03:08:48;;;;;;;22.20;20.20;;;17.30;95.50;;;;;;5061522;28;20100;-46
2023/09/18 03:11:16;;;;;;;23.35;20.95;;;17.20;95.40;;;;;;5041524;28;20097;-47
2023/09/18 03:13:49;;;;;;;24.42;22.13;;;17.20;95.50;;;;;;5069223;28;20024;-44
2023/09/18 03:16:16;;;;;;;22.80;20.73;;;17.10;95.50;;;;;;5062667;28;20396;-47
2023/09/18 03:18:43;;;;;;;21.15;19.15;;;17.20;95.40;;;;;;5058501;28;20029;-48
2023/09/18 03:21:10;;;;;;;22.17;19.95;;;17.10;95.50;;;;;;5054001;28;20160;-47
2023/09/18 03:23:36;;;;;;;23.73;21.45;;;17.10;95.50;;;;;;5055762;28;20108;-46
2023/09/18 03:26:03;;;;;;;20.80;18.92;;;17.10;95.40;;;;;;5045100;28;20092;-47
2023/09/18 03:28:32;;;;;;;22.83;20.75;;;17.10;95.50;;;;;;5072948;28;20930;-49
2023/09/18 03:30:59;;;;;;;20.30;18.30;;;17.10;95.50;;;;;;5049270;28;20032;-46
2023/09/18 03:33:29;;;;;;;20.25;18.52;;;17.10;95.50;;;;;;5039025;28;20029;-43
2023/09/18 03:35:58;;;;;;;19.88;17.98;;;17.10;95.50;;;;;;5073002;28;20024;-45
2023/09/18 03:38:25;;;;;;;20.58;18.58;;;17.00;95.40;;;;;;5072647;28;20024;-46
2023/09/18 03:40:52;;;;;;;26.60;21.42;;;17.10;95.50;;;;;;5055126;28;20690;-44
2023/09/18 03:43:18;;;;;;;20.35;18.45;;;17.10;95.50;;;;;;5055419;28;20032;-49
2023/09/18 03:45:43;;;;;;;23.23;21.00;;;17.10;95.60;;;;;;5046914;28;20041;-47
2023/09/18 03:48:11;;;;;;;20.35;18.55;;;17.10;95.60;;;;;;5072650;28;20020;-49
2023/09/18 03:50:38;;;;;;;22.00;19.75;;;17.10;95.60;;;;;;5066798;28;20338;-50
2023/09/18 03:53:06;;;;;;;20.67;18.80;;;17.10;95.60;;;;;;5054964;28;20031;-47
2023/09/18 03:55:35;;;;;;;22.35;18.95;;;17.10;95.60;;;;;;5070962;28;20074;-45
2023/09/18 03:58:04;;;;;;;23.73;21.30;;;17.00;95.50;;;;;;5051003;28;20057;-47
2023/09/18 04:00:31;;;;;;;21.27;19.05;;;17.00;95.60;;;;;;5059847;28;20282;-49
2023/09/18 04:02:56;;;;;;;21.83;19.63;;;17.10;95.70;;;;;;5058826;28;20029;-46
2023/09/18 04:05:23;;;;;;;20.50;18.40;;;17.10;95.80;;;;;;5051657;28;20036;-49
2023/09/18 04:07:48;;;;;;;20.13;18.23;;;17.10;95.80;;;;;;5070553;28;20029;-45
2023/09/18 04:10:19;;;;;;;21.65;18.63;;;17.20;95.80;;;;;;5071397;28;20454;-44
2023/09/18 04:12:50;;;;;;;20.50;18.55;;;17.20;95.80;;;;;;5045495;28;20018;-46
2023/09/18 04:15:19;;;;;;;21.80;19.80;;;17.20;95.80;;;;;;5047945;28;20035;-49
2023/09/18 04:17:46;;;;;;;21.40;19.27;;;17.20;95.80;;;;;;5066365;28;20028;-44
2023/09/18 04:20:14;;;;;;;21.23;18.25;;;17.20;95.80;;;;;;5058391;28;20033;-49
2023/09/18 04:22:44;;;;;;;19.67;17.60;;;17.20;95.80;;;;;;5033985;28;20532;-49
2023/09/18 04:25:12;;;;;;;22.88;19.13;;;17.30;95.90;;;;;;5039984;28;20048;-45
2023/09/18 04:27:39;;;;;;;19.48;17.60;;;17.30;95.90;;;;;;5065845;28;20102;-47
2023/09/18 04:30:09;;;;;;;21.25;19.05;;;17.30;95.90;;;;;;5059562;28;20084;-48
2023/09/18 04:32:37;;;;;;;20.23;18.17;;;17.40;96.00;;;;;;5075995;28;20024;-50
2023/09/18 04:35:05;;;;;;;19.02;16.90;;;17.40;96.00;;;;;;5070438;28;20376;-45
2023/09/18 04:37:35;;;;;;;20.20;17.02;;;17.50;96.00;;;;;;5055745;28;20029;-46
2023/09/18 04:40:09;;;;;;;19.90;17.80;;;17.50;96.00;;;;;;5036420;28;20097;-45
2023/09/18 04:42:36;;;;;;;22.15;19.88;;;17.50;96.00;;;;;;5052008;28;20179;-46
2023/09/18 04:45:06;;;;;;;20.65;18.42;;;17.50;96.00;;;;;;5054577;28;20465;-47
2023/09/18 04:47:34;;;;;;;21.00;19.10;;;17.50;95.90;;;;;;5055552;28;20114;-48
2023/09/18 04:50:05;;;;;;;19.95;17.85;;;17.60;96.00;;;;;;5052883;28;20044;-46
2023/09/18 04:52:34;;;;;;;19.35;17.55;;;17.50;95.90;;;;;;5051898;28;20025;-45
2023/09/18 04:55:01;;;;;;;18.75;16.90;;;17.50;95.90;;;;;;5050623;28;20045;-44
2023/09/18 04:57:26;;;;;;;19.15;17.13;;;17.50;95.80;;;;;;5051006;28;20029;-47
2023/09/18 04:59:53;;;;;;;18.73;16.90;;;17.50;95.80;;;;;;5051810;28;20043;-46
2023/09/18 05:02:20;;;;;;;18.60;16.65;;;17.60;95.80;;;;;;5053580;28;20397;-46
2023/09/18 05:04:46;;;;;;;17.83;15.98;;;17.50;95.80;;;;;;5035068;28;20025;-46
2023/09/18 05:07:13;;;;;;;18.40;16.55;;;17.60;95.80;;;;;;5054129;28;20028;-49
2023/09/18 05:09:41;;;;;;;17.27;15.38;;;17.60;95.80;;;;;;5052978;28;20036;-45
2023/09/18 05:12:13;;;;;;;17.42;14.57;;;17.60;95.80;;;;;;5054061;28;20025;-48
2023/09/18 05:14:43;;;;;;;15.20;13.88;;;17.70;95.80;;;;;;5048559;28;20481;-47
2023/09/18 05:17:16;;;;;;;15.43;13.93;;;17.70;95.70;;;;;;5026248;28;20037;-47
2023/09/18 05:19:43;;;;;;;16.08;14.32;;;17.70;95.70;;;;;;5043819;28;20087;-49
2023/09/18 05:22:11;;;;;;;15.00;12.38;;;17.70;95.60;;;;;;5055274;28;20032;-48
2023/09/18 05:24:41;;;;;;;16.27;13.65;;;17.70;95.50;;;;;;5053060;28;20029;-49
2023/09/18 05:27:07;;;;;;;14.25;12.95;;;17.80;95.40;;;;;;5050628;28;20472;-50
2023/09/18 05:29:37;;;;;;;13.38;12.07;;;17.80;95.30;;;;;;5062993;28;20047;-44
2023/09/18 05:32:04;;;;;;;13.50;12.07;;;17.80;95.20;;;;;;5051257;28;20461;-47
2023/09/18 05:34:31;;;;;;;14.55;13.10;;;17.80;95.00;;;;;;5051509;28;20089;-46
2023/09/18 05:36:59;;;;;;;12.75;11.45;;;17.80;94.90;;;;;;5051933;28;20056;-45
2023/09/18 05:39:28;;;;;;;14.45;12.95;;;17.80;94.80;;;;;;5038870;28;20039;-49
2023/09/18 05:41:57;;;;;;;;;;;17.80;94.60;;;;;;5053362;28;20048;-45
2023/09/18 05:44:23;;;;;;;13.10;11.60;;;17.90;94.60;;;;;;5056773;28;20269;-47
2023/09/18 05:46:51;;;;;;;13.57;12.00;;;17.90;94.50;;;;;;5057419;28;20041;-47
2023/09/18 05:49:18;;;;;;;12.35;11.07;;;17.90;94.30;;;;;;5052374;28;20062;-45
2023/09/18 05:51:47;;;;;;;21.92;12.10;;;17.90;94.20;;;;;;5052271;28;20108;-50
2023/09/18 05:54:14;;;;;;;13.35;12.05;;;18.00;94.10;;;;;;5054352;28;20132;-48
2023/09/18 05:56:44;;;;;;;12.70;10.20;;;18.00;93.90;;;;;;5051211;28;20040;-51
2023/09/18 05:59:11;;;;;;;11.73;10.40;;;18.10;93.80;;;;;;5034758;28;20653;-46
2023/09/18 06:01:38;;;;;;;11.55;9.82;;;18.10;93.50;;;;;;5059652;28;20035;-45
2023/09/18 06:04:05;;;;;;;10.90;9.90;;;18.20;93.40;;;;;;5072242;28;20028;-48
2023/09/18 06:06:31;;;;;;;12.43;9.82;;;18.20;93.20;;;;;;5060595;28;20036;-50
2023/09/18 06:08:59;;;;;;;11.80;9.88;;;18.30;93.10;;;;;;5064785;28;20033;-50
2023/09/18 06:11:25;;;;;;;14.25;10.40;;;18.40;92.90;;;;;;5055449;28;20082;-47
2023/09/18 06:13:53;;;;;;;10.27;9.18;;;18.40;92.60;;;;;;5050811;28;20041;-49
2023/09/18 06:16:21;;;;;;;10.45;9.45;;;18.40;92.60;;;;;;5054894;28;20037;-48
2023/09/18 06:18:50;;;;;;;11.18;8.30;;;18.60;92.40;;;;;;5051424;28;20025;-48
2023/09/18 06:21:18;;;;;;;10.80;9.70;;;18.60;92.00;;;;;;5034668;28;20021;-50
2023/09/18 06:23:44;;;;;;;10.02;7.90;;;18.70;91.80;;;;;;5071036;28;20096;-50
2023/09/18 06:26:11;;;;;;;8.88;7.97;;;18.70;91.60;;;;;;5067447;28;20072;-48
2023/09/18 06:28:38;;;;;;;9.15;8.20;;;18.80;91.60;;;;;;5059727;28;20138;-48
2023/09/18 06:31:06;;;;;;;9.30;8.15;;;18.80;91.50;;;;;;5066602;28;20078;-48
2023/09/18 06:33:34;;;;;;;10.38;8.50;;;18.90;91.40;;;;;;5037807;28;20360;-47
2023/09/18 06:36:01;;;;;;;8.73;7.93;;;18.90;91.30;;;;;;5043432;28;20037;-50
2023/09/18 06:38:27;;;;;;;8.55;7.38;;;18.90;91.20;;;;;;5052310;28;20030;-48
2023/09/18 06:40:55;;;;;;;11.32;7.95;;;18.90;91.20;;;;;;5017317;28;20028;-48
2023/09/18 06:43:24;;;;;;;10.57;7.93;;;19.00;91.10;;;;;;5057789;28;20108;-45
2023/09/18 06:45:50;;;;;;;8.23;7.07;;;19.00;90.90;;;;;;5052585;28;20127;-47
2023/09/18 06:48:19;;;;;;;7.90;7.10;;;19.00;90.80;;;;;;5032894;28;20391;-47
2023/09/18 06:50:46;;;;;;;9.48;7.13;;;19.00;90.60;;;;;;5055925;28;20044;-46
2023/09/18 06:53:12;;;;;;;9.55;7.43;;;19.10;90.60;;;;;;5035666;28;20459;-52
2023/09/18 06:55:39;;;;;;;8.38;7.47;;;19.10;90.60;;;;;;5048054;28;20095;-49
2023/09/18 06:58:06;;;;;;;10.77;8.18;;;19.10;90.50;;;;;;5050405;28;20074;-48
2023/09/18 07:00:34;;;;;;;8.60;7.63;;;19.10;90.10;;;;;;5057995;28;20116;-49
2023/09/18 07:03:02;;;;;;;10.32;7.05;;;19.10;89.70;;;;;;5033259;28;20060;-48
2023/09/18 07:05:29;;;;;;;9.23;8.30;;;19.20;89.50;;;;;;5039701;28;20457;-50
2023/09/18 07:07:57;;;;;;;9.75;6.90;;;19.20;89.30;;;;;;5030274;28;20031;-48
2023/09/18 07:10:24;;;;;;;9.60;7.63;;;19.20;89.10;;;;;;5051058;28;20025;-47
2023/09/18 07:12:52;;;;;;;8.70;7.47;;;19.20;89.10;;;;;;5058142;28;20071;-48
2023/09/18 07:15:19;;;;;;;9.68;7.63;;;19.20;89.10;;;;;;5025354;28;20033;-53
2023/09/18 07:17:48;;;;;;;8.40;7.60;;;19.10;89.20;;;;;;5041361;28;20013;-50
2023/09/18 07:20:15;;;;;;;11.23;7.80;;;19.20;89.30;;;;;;5047573;28;20044;-50
2023/09/18 07:22:50;;;;;;;8.82;7.32;;;19.20;89.20;;;;;;5045358;28;20025;-47
2023/09/18 07:25:16;;;;;;;10.68;8.13;;;19.20;89.30;;;;;;5050789;28;20028;-49
2023/09/18 07:27:46;;;;;;;8.88;7.25;;;19.20;89.30;;;;;;5047734;28;20040;-48
2023/09/18 07:30:20;;;;;;;10.82;7.50;;;19.20;89.30;;;;;;5041916;28;20090;-48
2023/09/18 07:32:47;;;;;;;8.20;7.40;;;19.30;89.10;;;;;;5021665;28;20037;-53
2023/09/18 07:35:14;;;;;;;11.18;7.35;;;19.40;89.00;;;;;;5034705;28;20040;-55
2023/09/18 07:37:44;;;;;;;10.63;8.25;;;19.40;88.90;;;;;;5048231;28;20367;-49
2023/09/18 07:40:11;;;;;;;8.85;6.68;;;19.40;88.70;;;;;;5041315;28;20039;-53
2023/09/18 07:42:40;;;;;;;9.60;7.07;;;19.40;88.70;;;;;;5044403;28;20030;-51
2023/09/18 07:45:07;;;;;;;11.23;7.93;;;19.40;88.70;;;;;;5047304;28;20032;-52
2023/09/18 07:47:34;;;;;;;11.52;7.95;;;19.60;88.80;;;;;;5057791;28;20033;-48
2023/09/18 07:50:01;;;;;;;10.82;7.65;;;19.50;88.80;;;;;;5050038;28;20044;-55
2023/09/18 07:52:29;;;;;;;9.90;7.10;;;19.60;88.40;;;;;;5050293;28;20119;-55
2023/09/18 07:54:55;;;;;;;8.25;7.20;;;19.60;88.50;;;;;;5023030;28;20075;-54
2023/09/18 07:57:22;;;;;;;10.25;8.27;;;19.70;88.10;;;;;;5029282;28;20033;-52
2023/09/18 07:59:50;;;;;;;10.85;7.60;;;19.70;88.00;;;;;;5042416;28;20025;-51
2023/09/18 08:02:17;;;;;;;12.35;7.80;;;19.80;88.00;;;;;;5030494;28;20033;-53
2023/09/18 08:04:45;;;;;;;7.88;6.88;;;19.80;88.00;;;;;;5036313;28;20028;-52
2023/09/18 08:07:12;;;;;;;8.77;6.93;;;19.80;88.10;;;;;;5039070;28;20033;-50
2023/09/18 08:09:39;;;;;;;10.85;7.32;;;19.80;88.30;;;;;;5032315;28;20033;-55
2023/09/18 08:12:09;;;;;;;12.10;7.15;;;19.80;88.20;;;;;;5030100;28;20022;-50
2023/09/18 08:14:36;;;;;;;9.38;6.72;;;19.80;88.00;;;;;;5044266;28;20553;-51
2023/09/18 08:17:07;;;;;;;8.35;7.03;;;19.90;88.10;;;;;;5036440;28;20730;-54
2023/09/18 08:19:35;;;;;;;11.00;6.97;;;19.90;88.10;;;;;;5037691;28;20031;-51
2023/09/18 08:22:05;;;;;;;10.50;7.93;;;19.90;88.10;;;;;;5044369;28;20017;-55
2023/09/18 08:24:31;;;;;;;9.35;7.63;;;20.00;88.00;;;;;;5013266;28;20104;-54
2023/09/18 08:27:01;;;;;;;8.65;6.53;;;20.10;87.90;;;;;;5028934;28;20033;-52
2023/09/18 08:29:28;;;;;;;9.43;6.22;;;20.30;87.90;;;;;;5032051;28;20046;-54
2023/09/18 08:31:54;;;;;;;10.25;6.40;;;20.40;87.40;;;;;;5030026;28;20104;-50
2023/09/18 08:34:21;;;;;;;8.50;7.20;;;20.40;87.20;;;;;;5010277;28;20029;-51
2023/09/18 08:36:47;;;;;;;10.55;7.25;;;20.50;87.20;;;;;;5025935;28;20044;-54
2023/09/18 08:39:12;;;;;;;10.55;6.80;;;20.50;86.90;;;;;;5027969;28;20030;-55
2023/09/18 08:41:48;;;;;;;9.15;6.80;;;20.40;87.00;;;;;;5027856;28;20032;-55
2023/09/18 08:44:14;;;;;;;9.85;6.70;;;20.40;87.50;;;;;;5017062;28;20332;-53
2023/09/18 08:46:43;;;;;;;10.27;6.88;;;20.40;87.50;;;;;;5043297;28;20035;-55
2023/09/18 08:49:11;;;;;;;14.43;6.45;;;20.30;88.00;;;;;;5028143;28;20037;-53
2023/09/18 08:51:41;;;;;;;9.07;7.15;;;20.30;88.20;;;;;;5028678;28;20033;-54
2023/09/18 08:54:08;;;;;;;9.98;7.63;;;20.20;88.30;;;;;;5031121;28;20521;-51
2023/09/18 08:56:35;;;;;;;11.82;8.02;;;20.10;88.70;;;;;;5045685;28;20025;-55
2023/09/18 08:59:04;;;;;;;9.85;7.25;;;20.10;88.90;;;;;;5050624;28;20033;-51
2023/09/18 09:01:32;;;;;;;9.52;7.50;;;20.10;89.30;;;;;;5044350;28;20021;-53
2023/09/18 09:04:00;;;;;;;10.40;7.18;;;20.00;89.90;;;;;;5030999;28;20048;-51
2023/09/18 09:06:29;;;;;;;10.95;7.68;;;19.90;90.30;;;;;;5034061;28;20441;-51
2023/09/18 09:08:56;;;;;;;14.65;8.88;;;19.90;90.80;;;;;;5049143;28;20501;-47
2023/09/18 09:11:22;;;;;;;15.65;9.00;;;19.80;91.30;;;;;;5050546;28;20041;-49
2023/09/18 09:14:15;;;;;;;12.40;9.10;;;19.70;91.50;;;;;;5053897;28;20028;-50
2023/09/18 09:16:47;;;;;;;11.13;9.38;;;19.80;92.00;;;;;;5037766;28;20041;-51
2023/09/18 09:19:18;;;;;;;12.93;9.27;;;19.80;92.20;;;;;;5052591;28;20036;-52
2023/09/18 09:21:46;;;;;;;14.05;8.98;;;19.80;92.40;;;;;;5050046;28;20059;-53
2023/09/18 09:24:16;;;;;;;14.10;9.02;;;19.80;92.70;;;;;;5050808;28;20025;-49
2023/09/18 09:26:43;;;;;;;;;;;19.80;92.90;;;;;;5053195;28;20029;-48
2023/09/18 09:29:37;;;;;;;13.75;8.98;;;19.70;92.90;;;;;;5051716;28;19923;-50
2023/09/18 09:32:18;;;;;;;12.80;9.55;;;19.60;93.10;;;;;;5029436;28;20344;-56
2023/09/18 09:34:46;;;;;;;15.25;11.40;;;19.50;93.40;;;;;;5048981;28;20029;-53
2023/09/18 09:37:13;;;;;;;14.55;9.68;;;19.50;93.70;;;;;;5053197;28;20346;-54
2023/09/18 09:39:51;;;;;;;16.77;10.90;;;19.50;93.90;;;;;;5048134;28;20025;-49
2023/09/18 09:42:27;;;;;;;15.80;11.75;;;19.60;94.20;;;;;;5051274;28;20028;-49
2023/09/18 09:45:12;;;;;;;16.83;11.85;;;19.60;94.30;;;;;;5053909;28;20036;-49
2023/09/18 09:47:39;;;;;;;12.07;10.32;;;19.60;94.30;;;;;;5054019;28;20079;-47
2023/09/18 09:50:26;;;;;;;15.35;12.15;;;19.70;94.50;;;;;;5033275;28;20036;-49
2023/09/18 09:52:54;;;;;;;14.63;12.68;;;19.80;94.50;;;;;;5051163;28;20388;-48
2023/09/18 09:55:30;;;;;;;16.92;12.48;;;19.90;94.40;;;;;;5052800;28;20059;-46
2023/09/18 09:58:17;;;;;;;17.40;12.85;;;19.80;94.30;;;;;;5062995;28;20115;-51
2023/09/18 10:00:51;;;;;;;17.95;13.52;;;19.70;94.20;;;;;;5050790;28;20179;-50
2023/09/18 10:03:20;;;;;;;14.82;13.25;;;19.50;94.20;;;;;;5056321;28;20116;-46
2023/09/18 10:05:53;;;;;;;17.70;12.95;;;19.50;94.30;;;;;;5054364;28;20028;-49
2023/09/18 10:08:27;;;;;;;16.48;13.15;;;19.50;94.30;;;;;;5058863;28;20063;-46
2023/09/18 10:11:00;;;;;;;17.17;12.35;;;19.40;94.40;;;;;;5052500;28;20032;-50
2023/09/18 10:13:40;;;;;;;16.10;13.00;;;19.40;94.50;;;;;;5041894;28;20025;-52
2023/09/18 10:16:10;;;;;;;19.40;14.05;;;19.40;94.50;;;;;;5042094;28;20055;-47
2023/09/18 10:18:54;;;;;;;13.88;11.98;;;19.40;94.70;;;;;;5037317;28;20044;-49
2023/09/18 10:21:38;;;;;;;15.10;13.50;;;19.50;94.80;;;;;;5052253;28;20052;-52
2023/09/18 10:24:25;;;;;;;17.35;13.65;;;19.50;94.90;;;;;;5059835;28;20021;-53
2023/09/18 10:27:04;;;;;;;15.05;13.25;;;19.60;94.90;;;;;;5051078;28;20052;-53
2023/09/18 10:29:36;;;;;;;14.27;12.32;;;19.60;94.90;;;;;;5035670;28;20056;-48
2023/09/18 10:32:04;;;;;;;15.85;13.65;;;19.60;94.80;;;;;;5048983;28;20042;-50
2023/09/18 10:34:33;;;;;;;16.75;14.95;;;19.60;94.90;;;;;;5044118;28;20025;-52
2023/09/18 10:37:06;;;;;;;17.52;13.55;;;19.60;94.90;;;;;;5047817;28;20110;-47
2023/09/18 10:39:41;;;;;;;15.90;12.98;;;19.60;95.00;;;;;;5032446;28;20311;-47
2023/09/18 10:42:08;;;;;;;15.70;13.65;;;19.60;95.10;;;;;;5050753;28;20450;-46
2023/09/18 10:44:39;;;;;;;17.73;14.80;;;19.70;95.10;;;;;;5051761;28;20026;-46
2023/09/18 10:47:11;;;;;;;17.23;14.63;;;19.70;95.10;;;;;;5057850;28;20021;-45
2023/09/18 10:49:41;;;;;;;15.40;13.77;;;19.80;95.00;;;;;;5043450;28;20055;-45
2023/09/18 10:52:13;;;;;;;15.23;13.60;;;19.80;95.10;;;;;;5047776;28;20102;-44
2023/09/18 10:54:40;;;;;;;15.57;13.90;;;19.80;95.00;;;;;;5052680;28;20052;-48
2023/09/18 10:57:10;;;;;;;16.00;14.25;;;19.80;95.00;;;;;;5047361;28;20328;-48
2023/09/18 10:59:46;;;;;;;15.30;12.95;;;19.80;94.90;;;;;;5046711;28;20045;-51
2023/09/18 11:02:18;;;;;;;18.33;15.30;;;19.70;94.90;;;;;;5038750;28;20032;-50
2023/09/18 11:04:45;;;;;;;16.73;13.93;;;19.90;95.00;;;;;;5031445;28;20124;-49
2023/09/18 11:07:22;;;;;;;16.90;14.75;;;19.90;95.00;;;;;;5049415;28;20033;-52
2023/09/18 11:09:48;;;;;;;16.88;15.18;;;20.20;95.10;;;;;;5050732;28;20033;-52
2023/09/18 11:12:18;;;;;;;15.65;13.10;;;20.30;94.90;;;;;;5046532;28;20029;-50
2023/09/18 11:14:56;;;;;;;17.38;15.57;;;20.20;94.60;;;;;;5052458;28;20024;-50
2023/09/18 11:17:33;;;;;;;19.40;16.58;;;20.30;94.30;;;;;;5030839;28;20087;-51
2023/09/18 11:20:19;;;;;;;16.75;14.80;;;20.50;94.50;;;;;;5045772;28;20036;-52
2023/09/18 11:23:27;;;;;;;18.20;15.05;;;20.80;94.60;;;;;;5047510;28;20043;-48
2023/09/18 11:25:54;;;;;;;15.27;13.43;;;20.90;94.10;;;;;;5045589;28;20033;-52
2023/09/18 11:28:28;;;;;;;20.67;14.05;;;20.90;93.40;;;;;;5052833;28;20037;-55
2023/09/18 11:31:00;;;;;;;19.48;13.50;;;20.90;93.10;;;;;;5051960;28;20385;-56
2023/09/18 11:33:46;;;;;;;15.38;13.82;;;21.00;92.90;;;;;;5051819;28;20108;-56
2023/09/18 11:36:32;;;;;;;16.27;12.80;;;21.20;93.00;;;;;;5046369;28;20033;-57
2023/09/18 11:39:03;;;;;;;13.63;12.13;;;21.40;92.20;;;;;;5029693;28;20588;-57
2023/09/18 11:41:32;;;;;;;14.48;12.68;;;21.50;91.70;;;;;;5049694;28;20451;-57
2023/09/18 11:44:13;;;;;;;13.55;12.20;;;21.60;91.30;;;;;;5047408;28;20099;-55
2023/09/18 11:46:45;;;;;;;12.57;11.38;;;21.50;90.50;;;;;;5050627;28;20152;-57
2023/09/18 11:49:12;;;;;;;12.30;10.75;;;21.40;90.30;;;;;;5050943;28;20036;-56
2023/09/18 11:51:39;;;;;;;12.65;11.30;;;21.40;90.70;;;;;;5031692;28;20056;-54
2023/09/18 11:54:07;;;;;;;13.32;11.45;;;21.50;90.80;;;;;;5050772;28;20099;-53
2023/09/18 11:56:35;;;;;;;13.25;10.20;;;21.40;90.60;;;;;;5050755;28;20119;-56
2023/09/18 11:59:06;;;;;;;13.10;10.77;;;21.50;90.40;;;;;;5027835;28;20886;-55
2023/09/18 12:01:35;;;;;;;12.77;10.98;;;21.70;90.90;;;;;;5049095;28;20033;-53
2023/09/18 12:04:08;;;;;;;11.77;10.40;;;21.80;90.40;;;;;;5052048;28;20099;-57
2023/09/18 12:06:36;;;;;;;15.05;10.95;;;21.90;90.00;;;;;;5051008;28;20032;-56
2023/09/18 12:09:06;;;;;;;12.95;10.30;;;21.90;88.90;;;;;;5032028;28;20045;-55
2023/09/18 12:11:42;;;;;;;12.70;9.63;;;22.00;88.40;;;;;;5058162;28;20335;-57
2023/09/18 12:14:09;;;;;;;11.00;9.27;;;22.20;88.70;;;;;;5051113;28;20036;-57
2023/09/18 12:16:40;;;;;;;12.32;8.98;;;22.30;88.10;;;;;;5047546;28;20025;-56
2023/09/18 12:19:06;;;;;;;10.30;8.40;;;22.40;87.30;;;;;;5049230;28;20040;-55
2023/09/18 12:21:39;;;;;;;14.98;8.20;;;22.50;87.30;;;;;;5032707;28;20438;-59
2023/09/18 12:24:06;;;;;;;8.60;7.75;;;22.50;86.10;;;;;;5048101;28;20024;-55
2023/09/18 12:26:32;;;;;;;10.38;7.40;;;22.40;85.00;;;;;;5050586;28;20013;-55
2023/09/18 12:29:04;;;;;;;9.10;7.30;;;22.40;85.10;;;;;;5031976;28;20498;-56
2023/09/18 12:31:31;;;;;;;7.97;6.57;;;22.50;85.90;;;;;;5032568;28;20056;-55
2023/09/18 12:33:59;;;;;;;13.75;6.30;;;22.40;84.60;;;;;;5049189;28;20511;-56
2023/09/18 12:36:27;;;;;;;10.38;7.15;;;22.30;83.60;;;;;;5050283;28;20048;-55
2023/09/18 12:39:00;;;;;;;14.10;6.38;;;22.30;83.90;;;;;;5050271;28;20079;-57
2023/09/18 12:41:26;;;;;;;8.15;6.18;;;22.40;84.30;;;;;;5048293;28;20017;-56
2023/09/18 12:43:54;;;;;;;7.38;6.32;;;22.50;84.30;;;;;;5051946;28;20079;-57